Terminal Aerodrome Forecast
Issued by NWS

Home | Current Version | Previous Version | Text Only | Print | Product List | Glossary On
Versions: 1 2 3 4 5 6 7 8 9 10 11 12 13 14 15 16 17 18 19 20 21 22 23 24 25 26
850
FTUS41 KPBZ 291130
TAFMGW
TAF
KMGW 291130Z 2912/3012 35005KT P6SM OVC010
     FM291300 35005KT P6SM OVC015
     FM291500 36005KT P6SM BKN022
     FM291700 01006KT P6SM SCT035
     FM301000 07006KT P6SM BKN200=

USA.gov is the U.S. government's official web portal to all federal, state and local government web resources and services.